Lavernia, Texas
Current Conditions -  °F | °C
As of 9:58 PM on Saturday 20 Dec 2014 (Local Time) from KRND Reporting Station
Overcast Overcast  
Wind Chill: 52°   Ceiling: 2400
Heat Index: 52°   Visibility: 10mi
Dew Point: 47°   Wind: 3mph
Humidity: 83%   Direction: 70°ENE
Pressure: 30.17"   Gusts: NA
Location:  29.356°N, 98.0927°W
Report Text: KRND 210358Z AUTO 07003KT 10SM OVC024 11/08 A3017 RMK AO2 SLP217 T01100083
Loading
Personal Weather Stations






























Interactive Weather Map New forecast layout! Learn more

10-Day Weather Forecast

Advertisements
Track Severe Weather on mobile